BIIS

Ísafjörður Airport

Ísafjörður, Iceland
TAF BIIS 261009Z 2611/2620 03008KT 9999 BKN020 OVC030 TEMPO 2614/2620 4000 SNRA BKN010 OVC020
Issued Valid From Valid To
Apr-26 @ 10:09 UTC
(3 hours ago)
Apr-26 @ 11:00 UTC
(3 hours ago)
Apr-26 @ 20:00 UTC
(in 6 hours)
Apr-26 @ 11:00 to Apr-26 @ 20:00
TAF BIIS 261009Z 2611/2620 03008KT 9999 BKN020 OVC030
Wind Visibility Clouds
30° at 8 knots 10,000+ meters
  • Broken at 2,000' AGL
  • Overcast at 3,000' AGL
Temporary Apr-26 @ 14:00 to Apr-26 @ 20:00
TEMPO 2614/2620 4000 SNRA BKN010 OVC020
Visibility Clouds Conditions
4,007 meters
  • Broken at 1,000' AGL
  • Overcast at 2,000' AGL
  • Snow
  • Rain
TAF BIIS 261009Z 2611/2620 03008KT 9999 BKN020 OVC030 TEMPO 2614/2620 4000 SNRA BKN010 OVC020
Issued Apr-26 @ 10:09 UTC
(3 hours ago)
Valid From Apr-26 @ 11:00 UTC
(3 hours ago)
Valid To Apr-26 @ 20:00 UTC
(in 6 hours)
Apr-26 @ 11:00 - Apr-26 @ 20:00
Wind Visibility
30° at 8 knots 10,000+ meters
Clouds
  • Broken at 2,000' AGL
  • Overcast at 3,000' AGL
Temporary Apr-26 @ 14:00 - Apr-26 @ 20:00
Clouds
  • Broken at 1,000' AGL
  • Overcast at 2,000' AGL
Conditions
  • Snow
  • Rain